Time;durP1;ratioP1;P1;durP2;ratioP2;P2;SDS_P1;SDS_P2;PMS_P1;PMS_P2;Temp;Humidity;BMP_temperature;BMP_pressure;BME280_temperature;BME280_humidity;BME280_pressure;Samples;Min_cycle;Max_cycle;Signal;HPM_P1;HPM_P2
2022/06/13 00:00:33;;;;;;;4.53;4.20;;;;;;;21.00;100.00;99117.38;5110605;28;20195;-59
2022/06/13 00:03:01;;;;;;;5.93;3.95;;;;;;;20.96;100.00;99126.50;5110714;28;20252;-59
2022/06/13 00:05:28;;;;;;;4.03;3.83;;;;;;;20.96;100.00;99131.78;5110539;28;20195;-60
2022/06/13 00:07:55;;;;;;;4.30;3.88;;;;;;;21.01;100.00;99129.63;5110557;28;20210;-59
2022/06/13 00:10:22;;;;;;;5.65;4.05;;;;;;;20.99;100.00;99126.28;5110166;28;20224;-59
2022/06/13 00:12:51;;;;;;;4.68;4.28;;;;;;;20.94;100.00;99129.28;5110457;28;20255;-60
2022/06/13 00:15:18;;;;;;;3.80;3.60;;;;;;;20.95;100.00;99124.84;5109867;28;20203;-59
2022/06/13 00:17:45;;;;;;;5.55;3.90;;;;;;;20.91;100.00;99126.03;5110149;28;20637;-59
2022/06/13 00:20:13;;;;;;;4.78;3.78;;;;;;;20.96;100.00;99127.34;5110308;28;20202;-59
2022/06/13 00:22:41;;;;;;;4.65;4.35;;;;;;;20.92;100.00;99132.97;5110175;28;20577;-60
2022/06/13 00:25:09;;;;;;;4.22;4.03;;;;;;;20.89;100.00;99122.66;5110206;28;20667;-60
2022/06/13 00:27:37;;;;;;;6.35;4.22;;;;;;;20.88;100.00;99118.38;5111608;28;20735;-60
2022/06/13 00:30:09;;;;;;;4.60;4.22;;;;;;;20.74;100.00;99086.94;5114285;28;20683;-59
2022/06/13 00:32:36;;;;;;;6.35;4.32;;;;;;;20.79;100.00;99098.78;5114279;28;20289;-60
2022/06/13 00:35:06;;;;;;;4.57;4.10;;;;;;;20.86;100.00;99101.81;5114755;28;20199;-59
2022/06/13 00:37:33;;;;;;;5.35;3.70;;;;;;;20.83;100.00;99112.59;5114067;28;20281;-59
2022/06/13 00:40:00;;;;;;;5.82;3.92;;;;;;;20.87;100.00;99106.97;5114259;28;20190;-59
2022/06/13 00:42:28;;;;;;;4.10;3.85;;;;;;;20.85;100.00;99102.75;5114108;28;20237;-59
2022/06/13 00:45:19;;;;;;;4.18;3.90;;;;;;;20.87;100.00;99112.25;5114001;28;20190;-59
2022/06/13 00:47:48;;;;;;;5.35;3.33;;;;;;;20.84;100.00;99116.91;5113861;28;20204;-59
2022/06/13 00:50:20;;;;;;;4.78;4.47;;;;;;;20.92;100.00;99114.50;5113738;28;20223;-59
2022/06/13 00:52:54;;;;;;;6.30;3.97;;;;;;;20.79;100.00;99113.78;5113742;28;20241;-59
2022/06/13 00:55:28;;;;;;;5.68;4.38;;;;;;;20.82;100.00;99126.72;5113618;28;20236;-59
2022/06/13 00:58:00;;;;;;;4.43;3.60;;;;;;;20.82;100.00;99119.66;5113933;28;20689;-59
2022/06/13 01:00:33;;;;;;;3.90;3.70;;;;;;;20.87;100.00;99120.16;5113647;28;20198;-59
2022/06/13 01:03:04;;;;;;;5.13;4.75;;;;;;;20.80;100.00;99121.56;5114416;28;20194;-59
2022/06/13 01:05:39;;;;;;;5.97;3.85;;;;;;;20.76;100.00;99120.16;5113619;28;20198;-59
2022/06/13 01:08:09;;;;;;;4.97;3.63;;;;;;;20.76;100.00;99125.41;5113544;28;20208;-59
2022/06/13 01:13:45;;;;;;;4.53;4.22;;;;;;;20.81;100.00;99107.44;5088358;27;20195;-59
2022/06/13 01:16:29;;;;;;;4.32;4.10;;;;;;;20.79;100.00;99125.16;5113161;28;20197;-59
2022/06/13 01:19:19;;;;;;;4.40;4.10;;;;;;;20.85;100.00;99127.34;5113387;28;20190;-59
2022/06/13 01:21:54;;;;;;;9.07;4.40;;;;;;;20.92;100.00;99122.41;5113025;28;20195;-60
2022/06/13 01:24:51;;;;;;;5.03;4.13;;;;;;;20.98;100.00;99122.81;5113134;28;20678;-61
2022/06/13 01:27:55;;;;;;;4.00;3.60;;;;;;;21.01;100.00;99130.47;5113335;28;20291;-61
2022/06/13 01:30:56;;;;;;;4.05;3.85;;;;;;;20.92;100.00;99125.06;5113025;28;20607;-61
2022/06/13 01:33:32;;;;;;;4.43;4.13;;;;;;;20.97;100.00;99123.75;5112917;28;20383;-60
2022/06/13 01:36:17;;;;;;;5.60;4.78;;;;;;;20.98;100.00;99132.53;5113061;28;20237;-60
2022/06/13 01:39:02;;;;;;;4.35;4.05;;;;;;;20.91;100.00;99140.06;5112593;28;20201;-61
2022/06/13 01:41:40;;;;;;;4.07;3.88;;;;;;;20.90;100.00;99138.38;5112786;28;20226;-60
2022/06/13 01:44:17;;;;;;;3.65;3.40;;;;;;;20.91;100.00;99142.69;5113233;28;20285;-60
2022/06/13 01:46:54;;;;;;;3.90;3.70;;;;;;;20.90;100.00;99140.16;5112932;28;20330;-60
2022/06/13 01:49:29;;;;;;;4.22;3.92;;;;;;;20.85;100.00;99129.16;5112647;28;20230;-61
2022/06/13 01:52:04;;;;;;;3.60;3.35;;;;;;;20.82;100.00;99127.56;5112850;28;20190;-60
2022/06/13 01:54:40;;;;;;;4.53;4.15;;;;;;;20.71;100.00;99132.84;5112512;28;20204;-60
2022/06/13 01:57:18;;;;;;;4.28;3.97;;;;;;;20.76;100.00;99128.06;5112860;28;20582;-58
2022/06/13 01:59:55;;;;;;;3.90;3.70;;;;;;;20.77;100.00;99126.25;5112347;28;20198;-59
2022/06/13 02:02:32;;;;;;;4.40;4.05;;;;;;;20.70;100.00;99128.50;5112496;28;20201;-59
2022/06/13 02:05:03;;;;;;;4.30;3.95;;;;;;;20.68;100.00;99127.78;5112524;28;20281;-59
2022/06/13 02:07:36;;;;;;;4.10;3.90;;;;;;;20.69;100.00;99124.19;5112395;28;20204;-58
2022/06/13 02:10:10;;;;;;;6.53;4.10;;;;;;;20.68;100.00;99127.78;5112258;27;20261;-58
2022/06/13 02:12:38;;;;;;;6.10;3.80;;;;;;;20.65;100.00;99118.31;5112228;28;20194;-59
2022/06/13 02:15:14;;;;;;;4.10;3.80;;;;;;;20.75;100.00;99123.75;5112368;28;20591;-59
2022/06/13 02:17:46;;;;;;;3.60;3.40;;;;;;;20.70;100.00;99123.25;5112033;28;20205;-60
2022/06/13 02:20:19;;;;;;;4.70;4.32;;;;;;;20.63;100.00;99119.41;5111785;28;20244;-60
2022/06/13 02:22:50;;;;;;;4.53;4.22;;;;;;;20.73;100.00;99120.38;5111928;28;20707;-59
2022/06/13 02:25:23;;;;;;;3.58;3.33;;;;;;;20.63;100.00;99122.03;5112290;28;20628;-60
2022/06/13 02:27:57;;;;;;;4.70;4.38;;;;;;;20.62;100.00;99123.84;5112140;28;20743;-60
2022/06/13 02:30:30;;;;;;;5.00;4.45;;;;;;;20.59;100.00;99123.22;5111883;28;20229;-60
2022/06/13 02:33:07;;;;;;;3.40;3.30;;;;;;;20.58;100.00;99124.16;5111568;28;20277;-61
2022/06/13 02:35:40;;;;;;;4.60;4.30;;;;;;;20.54;100.00;99117.47;5119592;27;20190;-61
2022/06/13 02:38:12;;;;;;;4.97;4.28;;;;;;;20.50;100.00;99124.75;5118964;27;20186;-59
2022/06/13 02:40:45;;;;;;;5.93;4.65;;;;;;;20.47;100.00;99130.25;5120456;27;20642;-60
2022/06/13 02:43:21;;;;;;;4.57;4.25;;;;;;;20.42;100.00;99126.31;5127212;27;20198;-60
2022/06/13 02:45:54;;;;;;;8.55;4.45;;;;;;;20.28;100.00;99128.16;5131961;27;20249;-59
2022/06/13 02:48:27;;;;;;;5.13;4.63;;;;;;;20.22;100.00;99125.94;5132165;27;20200;-60
2022/06/13 02:51:01;;;;;;;4.93;4.47;;;;;;;20.27;100.00;99128.25;5131377;27;20218;-60
2022/06/13 02:53:42;;;;;;;4.90;4.60;;;;;;;20.15;100.00;99134.44;5132493;27;20296;-60
2022/06/13 02:56:18;;;;;;;7.25;4.40;;;;;;;20.09;100.00;99125.16;5131703;27;20234;-60
2022/06/13 02:58:58;;;;;;;4.72;4.43;;;;;;;20.11;100.00;99127.69;5129880;27;20662;-57
2022/06/13 03:01:28;;;;;;;4.85;4.50;;;;;;;20.09;100.00;99125.16;5111380;28;20198;-58
2022/06/13 03:04:05;;;;;;;6.43;4.28;;;;;;;20.10;100.00;99120.75;5111241;28;20694;-59
2022/06/13 03:06:45;;;;;;;6.40;4.40;;;;;;;20.11;100.00;99115.38;5111143;28;20240;-59
2022/06/13 03:09:16;;;;;;;4.38;4.18;;;;;;;20.12;100.00;99124.97;5111272;28;20202;-58
2022/06/13 03:11:55;;;;;;;6.47;5.97;;;;;;;20.09;100.00;99124.38;5090141;28;20238;-61
2022/06/13 03:14:43;;;;;;;6.50;6.00;;;;;;;20.10;100.00;99126.84;5090623;28;20218;-61
2022/06/13 03:17:21;;;;;;;4.90;4.45;;;;;;;20.06;100.00;99114.88;5089657;28;20254;-61
2022/06/13 03:19:55;;;;;;;5.20;4.70;;;;;;;20.14;100.00;99133.59;5106804;28;20218;-61
2022/06/13 03:22:28;;;;;;;4.75;4.45;;;;;;;20.18;100.00;99126.31;5110614;28;20218;-61
2022/06/13 03:25:03;;;;;;;5.95;4.13;;;;;;;20.01;100.00;99108.25;5109272;28;20228;-61
2022/06/13 03:27:35;;;;;;;5.25;4.25;;;;;;;20.17;100.00;99128.09;5106365;27;20212;-59
2022/06/13 03:30:08;;;;;;;5.30;4.82;;;;;;;20.14;100.00;99130.13;5105657;28;20190;-60
2022/06/13 03:32:41;;;;;;;5.00;4.63;;;;;;;20.15;100.00;99130.00;5108930;28;20200;-61
2022/06/13 03:35:14;;;;;;;5.30;4.85;;;;;;;20.15;100.00;99127.38;5106654;28;20316;-61
2022/06/13 03:37:46;;;;;;;4.43;4.13;;;;;;;20.23;100.00;99135.53;5107238;28;20309;-61
2022/06/13 03:40:18;;;;;;;4.88;4.47;;;;;;;20.36;100.00;99150.47;5109546;28;20293;-62
2022/06/13 03:42:49;;;;;;;4.10;3.90;;;;;;;20.31;100.00;99137.63;5110167;28;20218;-61
2022/06/13 03:45:21;;;;;;;5.05;4.50;;;;;;;20.46;100.00;99133.00;5110136;28;20215;-61
2022/06/13 03:47:53;;;;;;;4.95;4.13;;;;;;;20.57;100.00;99136.50;5110239;28;20682;-61
2022/06/13 03:50:26;;;;;;;6.88;3.83;;;;;;;20.75;100.00;99144.00;5109800;28;20240;-61
2022/06/13 03:52:59;;;;;;;4.10;3.90;;;;;;;20.84;100.00;99143.28;5110330;28;20718;-60
2022/06/13 03:55:32;;;;;;;4.20;4.00;;;;;;;21.23;100.00;99144.66;5109328;28;20230;-64
2022/06/13 03:58:05;;;;;;;4.95;4.55;;;;;;;22.24;100.00;99158.50;5109854;28;20230;-62
2022/06/13 04:00:39;;;;;;;3.92;3.58;;;;;;;23.20;100.00;99158.34;5109868;28;20217;-61
2022/06/13 04:03:08;;;;;;;6.75;3.95;;;;;;;23.36;100.00;99158.72;5113610;28;20218;-61
2022/06/13 04:05:41;;;;;;;5.95;3.35;;;;;;;23.03;100.00;99165.91;5114145;28;20218;-62
2022/06/13 04:08:11;;;;;;;4.22;3.85;;;;;;;22.73;100.00;99164.06;5113979;28;20233;-61
2022/06/13 04:10:47;;;;;;;5.30;3.83;;;;;;;22.46;100.00;99163.72;5113432;28;20237;-61
2022/06/13 04:13:27;;;;;;;7.20;4.03;;;;;;;22.24;100.00;99164.66;5113140;28;20736;-62
2022/06/13 04:16:09;;;;;;;4.25;3.90;;;;;;;22.13;100.00;99162.03;5113784;28;20204;-61
2022/06/13 04:18:45;;;;;;;6.13;3.58;;;;;;;22.07;100.00;99163.41;5114733;28;20230;-61
2022/06/13 04:21:23;;;;;;;4.88;4.25;;;;;;;22.10;100.00;99164.97;5114551;28;20224;-62
2022/06/13 04:23:54;;;;;;;4.97;3.83;;;;;;;22.09;100.00;99163.28;5114259;28;20281;-58
2022/06/13 04:26:30;;;;;;;4.22;3.90;;;;;;;22.08;100.00;99164.25;5114682;28;20202;-62
2022/06/13 04:29:03;;;;;;;4.32;4.13;;;;;;;22.09;100.00;99163.28;5114726;28;20201;-62
2022/06/13 04:31:32;;;;;;;5.07;4.68;;;;;;;22.08;100.00;99159.81;5114391;28;20222;-57
2022/06/13 04:34:03;;;;;;;5.57;4.35;;;;;;;22.27;100.00;99169.69;5112717;28;20209;-57
2022/06/13 04:36:33;;;;;;;4.00;3.75;;;;;;;22.70;100.00;99161.66;5113361;28;20230;-59
2022/06/13 04:39:06;;;;;;;4.95;4.15;;;;;;;23.41;100.00;99172.38;5113477;28;20885;-59
2022/06/13 04:41:40;;;;;;;5.10;4.07;;;;;;;23.87;100.00;99166.53;5112410;28;20201;-59
2022/06/13 04:44:10;;;;;;;6.97;3.85;;;;;;;25.35;100.00;99179.44;5111383;28;20628;-63
2022/06/13 04:46:38;;;;;;;7.43;4.18;;;;;;;27.30;89.21;99187.53;5112000;28;20582;-64
2022/06/13 04:49:16;;;;;;;4.55;3.85;;;;;;;29.46;80.86;99196.22;5112165;28;20760;-59
2022/06/13 04:51:45;;;;;;;4.55;4.15;;;;;;;31.55;71.59;99202.06;5111442;28;20221;-59
2022/06/13 04:54:19;;;;;;;4.28;3.90;;;;;;;32.94;64.49;99199.09;5111740;28;20298;-59
2022/06/13 04:56:47;;;;;;;4.60;3.60;;;;;;;34.00;56.79;99195.97;5108449;28;20232;-58
2022/06/13 04:59:15;;;;;;;4.05;3.75;;;;;;;34.78;52.89;99204.47;5113326;28;20277;-58
2022/06/13 05:01:45;;;;;;;11.25;3.90;;;;;;;35.46;49.72;99184.25;5113819;28;20209;-58
2022/06/13 05:04:17;;;;;;;3.78;3.35;;;;;;;36.14;47.57;99194.59;5113552;28;20194;-58
2022/06/13 05:06:48;;;;;;;6.88;3.25;;;;;;;36.21;46.60;99193.56;5113656;28;20198;-59
2022/06/13 05:09:19;;;;;;;5.25;3.15;;;;;;;36.61;45.83;99180.56;5113567;28;20587;-62
2022/06/13 05:11:52;;;;;;;3.13;3.00;;;;;;;37.31;44.42;99200.19;5113327;28;20250;-63
2022/06/13 05:14:22;;;;;;;3.38;2.97;;;;;;;37.49;43.06;99195.81;5112998;28;20194;-64
2022/06/13 05:17:01;;;;;;;3.10;2.78;;;;;;;37.08;43.46;99194.53;5113604;28;20190;-64
2022/06/13 05:19:44;;;;;;;3.83;3.30;;;;;;;37.85;42.56;99194.97;5113013;28;20282;-63
2022/06/13 05:22:29;;;;;;;4.30;3.40;;;;;;;38.16;41.57;99194.78;5112062;28;20190;-63
2022/06/13 05:25:12;;;;;;;7.28;3.40;;;;;;;39.02;39.04;99198.94;5111323;28;20197;-62
2022/06/13 05:27:39;;;;;;;3.50;3.20;;;;;;;38.18;39.59;99192.69;5109087;28;20201;-62
2022/06/13 05:30:07;;;;;;;3.60;3.40;;;;;;;37.37;41.18;99180.31;5111886;28;20196;-63
2022/06/13 05:32:34;;;;;;;4.07;3.45;;;;;;;37.76;41.30;99180.94;5111523;28;20221;-63
2022/06/13 05:35:04;;;;;;;5.82;5.25;;;;;;;37.72;41.39;99190.56;5111969;28;20226;-62
2022/06/13 05:37:33;;;;;;;6.50;5.63;;;;;;;37.95;40.93;99187.97;5111922;28;20711;-58
2022/06/13 05:40:00;;;;;;;3.80;3.60;;;;;;;38.33;40.17;99189.56;5108970;28;20186;-58
2022/06/13 05:42:27;;;;;;;3.78;3.45;;;;;;;38.42;39.84;99178.13;5111556;28;20285;-58
2022/06/13 05:44:54;;;;;;;5.97;4.40;;;;;;;38.28;40.46;99184.00;5111076;28;20194;-58
2022/06/13 05:47:21;;;;;;;5.63;4.10;;;;;;;38.23;40.26;99183.88;5111195;28;20565;-58
2022/06/13 05:49:48;;;;;;;4.00;3.70;;;;;;;38.21;40.20;99181.38;5111512;28;20590;-59
2022/06/13 05:52:15;;;;;;;7.43;7.03;;;;;;;37.13;41.70;99183.06;5111365;28;20217;-59
2022/06/13 05:54:44;;;;;;;6.22;5.63;;;;;;;37.13;42.67;99180.34;5111116;28;20669;-59
2022/06/13 05:57:11;;;;;;;6.32;5.10;;;;;;;37.06;41.84;99172.28;5111203;28;20200;-58
2022/06/13 05:59:38;;;;;;;4.32;3.90;;;;;;;36.23;43.04;99177.13;5111434;28;20270;-59
2022/06/13 06:02:06;;;;;;;5.88;5.28;;;;;;;35.87;44.02;99175.84;5111245;28;20285;-58
2022/06/13 06:04:32;;;;;;;5.47;3.95;;;;;;;36.24;43.99;99176.03;5111011;28;20216;-59
2022/06/13 06:06:59;;;;;;;5.00;4.53;;;;;;;36.47;43.72;99170.06;5108354;28;20273;-58
2022/06/13 06:09:26;;;;;;;5.63;5.22;;;;;;;36.60;43.47;99168.09;5111117;28;20718;-59
2022/06/13 06:11:55;;;;;;;4.30;3.90;;;;;;;36.86;42.04;99168.94;5111032;28;20240;-58
2022/06/13 06:14:22;;;;;;;10.05;4.30;;;;;;;36.80;43.23;99177.97;5112141;28;20281;-58
2022/06/13 06:16:48;;;;;;;5.07;4.28;;;;;;;36.23;43.16;99190.63;5112300;28;20289;-59
2022/06/13 06:19:15;;;;;;;7.05;5.68;;;;;;;35.97;44.90;99192.41;5112410;28;20677;-58
2022/06/13 06:21:42;;;;;;;4.80;4.10;;;;;;;35.17;45.77;99190.94;5112049;28;20285;-57
2022/06/13 06:24:09;;;;;;;7.20;5.93;;;;;;;34.33;47.54;99174.53;5111430;28;20597;-58
2022/06/13 06:26:36;;;;;;;5.60;5.20;;;;;;;34.38;47.33;99177.47;5110242;28;20671;-59
2022/06/13 06:29:04;;;;;;;4.60;4.15;;;;;;;34.45;47.24;99185.53;5111973;28;20205;-58
2022/06/13 06:31:32;;;;;;;5.32;4.93;;;;;;;34.42;47.69;99184.09;5111849;28;20222;-58
2022/06/13 06:33:59;;;;;;;5.78;4.90;;;;;;;34.28;47.86;99178.88;5110635;28;20683;-58
2022/06/13 06:36:27;;;;;;;6.20;5.40;;;;;;;34.47;48.41;99181.59;5110817;28;20665;-59
2022/06/13 06:38:54;;;;;;;6.50;4.93;;;;;;;34.31;48.80;99182.00;5115922;27;20675;-60
2022/06/13 06:41:21;;;;;;;4.80;4.38;;;;;;;34.00;49.13;99179.00;5110900;28;20190;-58
2022/06/13 06:43:48;;;;;;;6.15;4.60;;;;;;;34.56;48.60;99187.63;5110903;28;20194;-59
2022/06/13 06:46:16;;;;;;;4.05;3.70;;;;;;;35.06;47.87;99188.06;5109812;28;20201;-59
2022/06/13 06:48:43;;;;;;;8.75;3.95;;;;;;;34.68;47.81;99180.56;5111038;28;20197;-59
2022/06/13 06:51:13;;;;;;;4.78;4.38;;;;;;;34.85;48.57;99189.13;5111432;28;20682;-58
2022/06/13 07:01:55;;;;;;;6.10;4.35;;;;;;;33.53;55.73;99172.56;5111279;28;20736;-58
2022/06/13 07:04:22;;;;;;;5.22;4.85;;;;;;;33.17;52.68;99167.38;5111245;28;20583;-59
2022/06/13 07:06:48;;;;;;;5.60;5.20;;;;;;;32.66;53.60;99167.59;5111554;28;20268;-58
2022/06/13 07:09:15;;;;;;;6.57;5.80;;;;;;;33.00;52.54;99168.72;5111165;28;20205;-58
2022/06/13 07:11:55;;;;;;;5.90;5.50;;;;;;;32.98;52.96;99162.69;5111022;28;20218;-59
2022/06/13 07:14:22;;;;;;;5.22;4.93;;;;;;;32.70;55.40;99166.19;5111177;28;20640;-59
2022/06/13 07:16:49;;;;;;;6.72;4.38;;;;;;;32.75;53.07;99168.31;5110917;28;20202;-58
2022/06/13 07:19:18;;;;;;;7.97;6.28;;;;;;;32.69;54.68;99172.59;5111168;28;20591;-59
2022/06/13 07:21:45;;;;;;;6.43;5.93;;;;;;;32.55;54.73;99178.88;5110964;28;20671;-59
2022/06/13 07:24:12;;;;;;;6.50;5.70;;;;;;;32.76;52.81;99183.41;5110781;28;20226;-59
2022/06/13 07:26:39;;;;;;;4.70;4.07;;;;;;;32.70;53.99;99181.50;5110797;28;20194;-59
2022/06/13 07:29:06;;;;;;;5.15;4.60;;;;;;;33.00;51.98;99174.91;5109946;28;20623;-59
2022/06/13 07:31:37;;;;;;;6.38;5.88;;;;;;;33.56;53.00;99187.47;5110210;28;20225;-59
2022/06/13 07:34:05;;;;;;;5.88;4.45;;;;;;;33.73;53.17;99191.50;5109532;28;20191;-59
2022/06/13 07:36:36;;;;;;;8.27;4.15;;;;;;;33.65;50.81;99191.66;5110162;28;20744;-59
2022/06/13 07:39:03;;;;;;;7.32;4.80;;;;;;;33.57;50.71;99179.22;5110593;28;20197;-59
2022/06/13 07:41:30;;;;;;;7.10;6.32;;;;;;;33.80;52.11;99187.00;5110511;28;20376;-58
2022/06/13 07:43:58;;;;;;;4.63;4.32;;;;;;;34.24;50.21;99199.97;5110428;28;20198;-59
2022/06/13 07:46:27;;;;;;;7.25;6.80;;;;;;;34.31;50.57;99198.19;5110544;28;20191;-59
2022/06/13 07:48:55;;;;;;;7.70;7.00;;;;;;;34.32;49.78;99188.22;5110591;28;20190;-59
2022/06/13 07:51:23;;;;;;;6.93;5.90;;;;;;;34.30;49.01;99193.00;5110800;28;20198;-57
2022/06/13 07:53:52;;;;;;;4.82;4.53;;;;;;;34.23;48.73;99191.06;5110311;28;20301;-58
2022/06/13 07:56:21;;;;;;;4.00;3.80;;;;;;;34.26;48.83;99189.03;5110045;28;20227;-59
2022/06/13 07:58:52;;;;;;;6.28;5.38;;;;;;;34.20;50.23;99183.38;5110632;28;20854;-58
2022/06/13 08:01:20;;;;;;;7.38;5.68;;;;;;;33.63;50.28;99189.19;5110356;28;20197;-58
2022/06/13 08:03:47;;;;;;;6.43;6.03;;;;;;;32.91;51.02;99186.84;5110351;28;20195;-59
2022/06/13 08:06:15;;;;;;;6.50;6.00;;;;;;;32.24;52.45;99181.06;5110524;28;20655;-62
2022/06/13 08:08:42;;;;;;;5.15;4.50;;;;;;;31.56;54.87;99183.09;5110475;28;20584;-61
2022/06/13 08:11:14;;;;;;;5.13;4.72;;;;;;;30.77;57.88;99181.91;5110530;28;20197;-61
2022/06/13 08:13:41;;;;;;;5.53;5.22;;;;;;;30.81;58.78;99179.69;5110207;28;20223;-61
2022/06/13 08:16:09;;;;;;;5.97;5.47;;;;;;;30.66;59.24;99176.97;5110177;28;20195;-61
2022/06/13 08:18:36;;;;;;;6.15;5.15;;;;;;;30.63;60.96;99174.66;5109839;28;20194;-62
2022/06/13 08:21:04;;;;;;;5.50;5.05;;;;;;;30.93;60.17;99180.91;5110131;28;20270;-61
2022/06/13 08:23:32;;;;;;;5.57;5.07;;;;;;;30.84;60.30;99177.47;5106219;28;20197;-61
2022/06/13 08:25:59;;;;;;;7.68;5.93;;;;;;;31.01;60.88;99179.00;5109075;28;20198;-61
2022/06/13 08:28:28;;;;;;;6.55;6.15;;;;;;;31.08;61.50;99173.72;5106274;28;20209;-63
2022/06/13 08:30:59;;;;;;;6.97;6.40;;;;;;;31.20;60.02;99184.84;5109754;28;20199;-62
2022/06/13 08:33:26;;;;;;;6.05;5.43;;;;;;;31.16;58.45;99164.78;5110240;28;20774;-62
2022/06/13 08:35:53;;;;;;;7.10;5.75;;;;;;;31.24;58.80;99178.94;5110043;28;20295;-61
2022/06/13 08:38:21;;;;;;;7.18;6.50;;;;;;;31.59;58.75;99180.06;5108835;28;20630;-60
2022/06/13 08:40:58;;;;;;;6.72;6.13;;;;;;;32.43;56.28;99183.09;5110167;28;20226;-61
2022/06/13 08:43:51;;;;;;;8.27;6.82;;;;;;;32.10;54.97;99180.03;5110272;28;20191;-61
2022/06/13 08:46:30;;;;;;;10.63;9.63;;;;;;;32.01;56.27;99175.81;5109934;28;20289;-61
2022/06/13 08:49:11;;;;;;;7.85;7.18;;;;;;;31.91;55.38;99180.66;5111633;28;20198;-61
2022/06/13 08:51:45;;;;;;;6.97;6.30;;;;;;;31.73;55.88;99187.25;5113953;28;20195;-62
2022/06/13 08:54:17;;;;;;;5.93;5.35;;;;;;;32.25;53.48;99183.56;5113909;28;20194;-59
2022/06/13 08:56:45;;;;;;;7.38;5.25;;;;;;;32.51;53.74;99187.53;5113430;28;20267;-60
2022/06/13 08:59:24;;;;;;;5.20;4.55;;;;;;;32.82;54.08;99196.09;5101832;28;20226;-59
2022/06/13 09:01:56;;;;;;;5.72;5.20;;;;;;;32.74;52.51;99185.47;5113389;28;20230;-59
2022/06/13 09:04:27;;;;;;;7.47;5.82;;;;;;;33.00;52.55;99191.06;5113546;28;20195;-60
2022/06/13 09:06:59;;;;;;;13.82;12.50;;;;;;;33.46;49.36;99202.13;5113607;28;20194;-61
2022/06/13 09:09:34;;;;;;;7.45;6.72;;;;;;;33.67;49.58;99198.50;5113535;28;20195;-59
2022/06/13 09:12:06;;;;;;;17.60;14.48;;;;;;;33.86;49.52;99205.88;5112422;28;20764;-59
2022/06/13 09:14:37;;;;;;;6.57;6.07;;;;;;;33.78;48.47;99203.34;5112485;28;20244;-59
2022/06/13 09:17:13;;;;;;;5.18;4.80;;;;;;;33.93;49.46;99199.69;5111783;28;20194;-59
2022/06/13 09:19:46;;;;;;;6.20;5.55;;;;;;;33.91;48.85;99201.75;5112893;28;20279;-60
2022/06/13 09:22:20;;;;;;;5.28;4.95;;;;;;;34.12;48.14;99204.31;5113042;28;20282;-59
2022/06/13 09:24:57;;;;;;;5.15;4.75;;;;;;;33.76;47.68;99197.34;5113269;28;20683;-59
2022/06/13 09:27:27;;;;;;;8.15;4.55;;;;;;;33.14;49.08;99203.56;5113018;28;20575;-60
2022/06/13 09:30:01;;;;;;;4.65;4.30;;;;;;;33.23;47.38;99208.78;5113086;28;20586;-61
2022/06/13 09:32:33;;;;;;;6.53;5.18;;;;;;;33.58;47.26;99213.19;5113171;28;20605;-59
2022/06/13 09:35:10;;;;;;;5.85;5.25;;;;;;;33.43;46.81;99209.78;5113184;28;20570;-59
2022/06/13 09:37:43;;;;;;;8.90;6.43;;;;;;;33.72;47.07;99204.13;5112913;28;20198;-59
2022/06/13 09:40:12;;;;;;;5.55;5.15;;;;;;;34.05;46.61;99209.69;5112794;28;20217;-59
2022/06/13 09:42:52;;;;;;;5.45;4.95;;;;;;;33.64;47.52;99206.97;5112552;28;20221;-58
2022/06/13 09:45:41;;;;;;;6.50;4.60;;;;;;;32.97;48.58;99204.88;5112737;28;20208;-58
2022/06/13 09:48:17;;;;;;;6.45;6.05;;;;;;;32.61;48.38;99196.94;5112452;28;20203;-58
2022/06/13 09:50:51;;;;;;;6.30;5.80;;;;;;;32.92;49.63;99193.91;5112537;28;20277;-58
2022/06/13 09:53:28;;;;;;;5.53;5.13;;;;;;;33.58;47.94;99204.28;5112423;28;20341;-59
2022/06/13 09:56:02;;;;;;;6.70;5.20;;;;;;;33.64;45.83;99195.38;5112509;28;20234;-60
2022/06/13 09:58:46;;;;;;;5.50;5.20;;;;;;;33.68;45.13;99194.78;5112625;28;20193;-59
2022/06/13 10:01:21;;;;;;;6.32;5.68;;;;;;;34.01;44.80;99194.94;5112290;28;20727;-59
2022/06/13 10:03:56;;;;;;;6.07;5.60;;;;;;;33.81;46.05;99191.38;5112337;28;20697;-58
2022/06/13 10:06:31;;;;;;;6.40;5.72;;;;;;;33.79;45.87;99193.41;5112403;28;20212;-60
2022/06/13 10:09:14;;;;;;;5.85;5.32;;;;;;;33.65;46.93;99189.81;5112543;27;20667;-60
2022/06/13 10:11:48;;;;;;;6.80;6.15;;;;;;;33.67;47.94;99186.91;5112226;28;20199;-59
2022/06/13 10:14:45;;;;;;;6.97;6.43;;;;;;;33.87;46.33;99188.69;5112130;28;20317;-59
2022/06/13 10:17:31;;;;;;;5.80;5.35;;;;;;;33.42;46.28;99183.88;5112284;28;20224;-59
2022/06/13 10:20:07;;;;;;;7.63;5.55;;;;;;;33.46;46.87;99191.38;5112464;28;20234;-60
2022/06/13 10:22:43;;;;;;;6.20;5.85;;;;;;;33.50;48.08;99189.13;5112099;28;20201;-62
2022/06/13 10:25:23;;;;;;;6.00;5.43;;;;;;;33.21;46.92;99174.00;5112006;28;20194;-60
2022/06/13 10:28:02;;;;;;;6.20;5.70;;;;;;;32.75;48.52;99184.44;5111947;28;20190;-61
2022/06/13 10:30:42;;;;;;;8.25;6.30;;;;;;;32.55;49.90;99167.28;5111977;28;20201;-60
2022/06/13 10:33:25;;;;;;;8.10;6.65;;;;;;;32.50;49.24;99173.25;5111937;28;20287;-60
2022/06/13 10:35:59;;;;;;;6.65;6.25;;;;;;;32.23;50.00;99145.31;5111857;28;20229;-60
2022/06/13 10:38:50;;;;;;;6.35;5.75;;;;;;;31.98;49.84;99165.44;5111557;28;20766;-60
2022/06/13 10:41:17;;;;;;;7.65;6.95;;;;;;;31.71;50.92;99159.81;5111554;28;20206;-62
2022/06/13 10:43:45;;;;;;;8.43;6.90;;;;;;;31.73;51.79;99160.41;5111727;28;20194;-58
2022/06/13 10:46:14;;;;;;;11.68;6.82;;;;;;;31.73;51.88;99157.72;5110843;28;20191;-58
2022/06/13 10:48:46;;;;;;;7.40;6.50;;;;;;;31.60;51.25;99148.69;5110210;28;20191;-58
2022/06/13 10:51:14;;;;;;;6.72;6.32;;;;;;;31.31;52.10;99152.22;5107463;28;20281;-59
2022/06/13 10:53:43;;;;;;;6.82;6.35;;;;;;;31.23;54.46;99145.09;5109776;28;20214;-59
2022/06/13 10:56:15;;;;;;;7.05;6.45;;;;;;;31.42;54.93;99140.19;5109753;28;20603;-59
2022/06/13 10:58:46;;;;;;;12.90;6.72;;;;;;;31.51;54.92;99144.41;5110159;28;20655;-59
2022/06/13 11:01:15;;;;;;;6.75;6.15;;;;;;;31.39;55.37;99138.69;5107256;28;20250;-58
2022/06/13 11:03:58;;;;;;;7.15;6.63;;;;;;;31.16;55.47;99137.97;5109985;28;20266;-58
2022/06/13 11:06:38;;;;;;;7.45;6.78;;;;;;;30.75;54.61;99133.00;5111179;28;20226;-59
2022/06/13 11:09:08;;;;;;;7.53;6.82;;;;;;;30.70;54.60;99135.41;5111181;28;20190;-57
2022/06/13 11:11:38;;;;;;;9.07;8.20;;;;;;;30.73;56.05;99137.72;5110670;28;20643;-59
2022/06/13 11:14:05;;;;;;;8.43;6.18;;;;;;;30.84;53.14;99126.56;5111112;28;20310;-58
2022/06/13 11:22:38;;;;;;;9.75;6.78;;;;;;;31.11;54.72;99124.28;5111091;28;20289;-58
2022/06/13 11:25:20;;;;;;;8.40;7.57;;;;;;;30.96;56.23;99117.03;5111212;28;20202;-58
2022/06/13 11:27:50;;;;;;;9.75;7.30;;;;;;;30.85;58.38;99109.47;5111087;28;20750;-59
2022/06/13 11:30:50;;;;;;;9.25;8.00;;;;;;;30.94;58.57;99105.66;5110892;28;20239;-59
2022/06/13 11:33:24;;;;;;;8.32;7.72;;;;;;;30.80;57.52;99106.50;5110636;28;20218;-59
2022/06/13 11:35:56;;;;;;;9.13;7.60;;;;;;;30.84;56.77;99101.59;5110634;28;20198;-59
2022/06/13 11:38:26;;;;;;;8.60;7.88;;;;;;;30.75;57.92;99102.72;5107862;28;20642;-60
2022/06/13 11:41:19;;;;;;;8.30;7.70;;;;;;;30.75;56.31;99100.84;5110231;28;20182;-60
2022/06/13 11:43:51;;;;;;;7.85;7.18;;;;;;;30.71;57.11;99098.72;5095817;28;20754;-61
2022/06/13 11:46:44;;;;;;;10.02;7.25;;;;;;;30.67;56.41;99095.59;5110461;28;20201;-60
2022/06/13 11:49:29;;;;;;;7.90;7.40;;;;;;;30.79;56.13;99078.06;5110024;28;20202;-59
2022/06/13 11:52:01;;;;;;;9.60;8.07;;;;;;;30.82;55.38;99087.53;5110339;28;20206;-60
2022/06/13 11:54:32;;;;;;;8.48;6.85;;;;;;;30.97;54.09;99085.72;5110343;28;20252;-60
2022/06/13 11:57:20;;;;;;;7.93;6.38;;;;;;;31.08;52.21;99084.41;5110571;28;20293;-60
2022/06/13 11:59:53;;;;;;;7.15;6.47;;;;;;;31.13;51.20;99084.72;5107940;28;20199;-59
2022/06/13 12:02:23;;;;;;;6.47;5.97;;;;;;;31.22;50.32;99078.25;5110399;28;20285;-60
2022/06/13 12:04:54;;;;;;;8.02;7.57;;;;;;;31.23;52.73;99066.50;5110436;28;20274;-60
2022/06/13 12:07:26;;;;;;;7.05;6.55;;;;;;;31.48;51.90;99067.84;5110480;28;20205;-60
2022/06/13 12:09:56;;;;;;;8.63;7.88;;;;;;;31.73;52.16;99062.97;5110389;28;20232;-60
2022/06/13 12:12:26;;;;;;;7.85;7.20;;;;;;;31.53;51.19;99059.22;5110459;28;20202;-59